Time;durP1;ratioP1;P1;durP2;ratioP2;P2;SDS_P1;SDS_P2;PMS_P1;PMS_P2;Temp;Humidity;BMP_temperature;BMP_pressure;BME280_temperature;BME280_humidity;BME280_pressure;Samples;Min_cycle;Max_cycle;Signal;HPM_P1;HPM_P2
2023/10/14 01:02:30;;;;;;;6.97;5.63;;;22.20;91.30;;;;;;5882525;24;20400;-78
2023/10/14 02:02:21;;;;;;;7.83;6.27;;;20.90;99.90;;;;;;5898099;23;20437;-79
2023/10/14 02:08:37;;;;;;;8.87;7.30;;;20.60;99.90;;;;;;5913572;23;20410;-79
2023/10/14 02:38:58;;;;;;;11.83;7.57;;;20.00;99.90;;;;;;5894629;24;20419;-79
2023/10/14 02:46:10;;;;;;;;;;;;;;;;;;;;;
2023/10/14 02:52:49;;;;;;;10.67;7.60;;;20.40;99.90;;;;;;6281940;22;20952;-78
2023/10/14 02:56:20;;;;;;;7.30;6.70;;;20.00;99.90;;;;;;6283188;22;20489;-79
2023/10/14 03:09:42;;;;;;;;;;;;;;;;;;;;;
2023/10/14 03:12:48;;;;;;;7.47;6.87;;;20.20;99.90;;;;;;6263630;22;20403;-81
2023/10/14 03:15:56;;;;;;;8.27;7.57;;;20.20;99.90;;;;;;6277355;22;20461;-79
2023/10/14 03:19:16;;;;;;;10.37;7.23;;;20.30;99.90;;;;;;6277686;22;20381;-80
2023/10/14 03:22:22;;;;;;;8.10;7.30;;;20.30;99.90;;;;;;6254458;22;20409;-79
2023/10/14 03:28:55;;;;;;;11.00;7.80;;;20.30;99.90;;;;;;5980992;24;20421;-79
2023/10/14 03:32:25;;;;;;;;;;;;;;;;;;;;;
2023/10/14 03:36:13;;;;;;;;;;;;;;;;;;;;;
2023/10/14 04:07:28;;;;;;;8.50;7.37;;;20.40;99.90;;;;;;6040054;23;20501;-80
2023/10/14 04:20:59;;;;;;;8.97;7.93;;;20.10;99.90;;;;;;6004367;23;20444;-80
2023/10/14 04:38:26;;;;;;;;;;;;;;;;;;;;;
2023/10/14 04:41:56;;;;;;;;;;;;;;;;;;;;;
2023/10/14 05:15:19;;;;;;;7.20;6.60;;;18.50;99.90;;;;;;5746103;24;20458;-81
2023/10/14 05:30:56;;;;;;;;;;;;;;;;;;;;;
2023/10/14 05:48:18;;;;;;;;;;;;;;;;;;;;;
2023/10/14 06:01:02;;;;;;;7.33;6.60;;;18.30;99.90;;;;;;6077631;23;20439;-79
2023/10/14 06:18:53;;;;;;;;;;;;;;;;;;;;;
2023/10/14 06:32:18;;;;;;;9.60;5.40;;;18.10;99.90;;;;;;5953999;24;20440;-79
2023/10/14 06:51:36;;;;;;;7.20;5.17;;;18.10;99.90;;;;;;6166210;23;20400;-79
2023/10/14 06:54:43;;;;;;;5.83;4.93;;;18.20;99.90;;;;;;6166097;22;20492;-79
2023/10/14 07:01:23;;;;;;;6.97;4.57;;;18.10;99.90;;;;;;6044731;23;20483;-81
2023/10/14 07:04:12;;;;;;;5.23;4.23;;;18.20;99.90;;;;;;5972867;23;20420;-81
2023/10/14 07:37:13;;;;;;;5.23;3.67;;;19.00;99.90;;;;;;6115838;23;20489;-84
2023/10/14 07:56:15;;;;;;;3.83;3.10;;;19.30;99.90;;;;;;6187927;23;20397;-83
2023/10/14 07:59:41;;;;;;;3.30;3.00;;;19.40;99.90;;;;;;6246512;22;20474;-80
2023/10/14 08:06:21;;;;;;;;;;;;;;;;;;;;;
2023/10/14 08:09:23;;;;;;;5.70;2.83;;;19.40;99.90;;;;;;6247365;23;20394;-82
2023/10/14 08:12:04;;;;;;;3.40;2.77;;;19.40;99.90;;;;;;6156344;23;20879;-79
2023/10/14 08:15:08;;;;;;;3.80;2.83;;;19.40;99.90;;;;;;6247975;22;20868;-80
2023/10/14 08:18:26;;;;;;;;;;;;;;;;;;;;;
2023/10/14 08:21:17;;;;;;;3.83;3.33;;;19.30;99.90;;;;;;6251298;23;20455;-80
2023/10/14 08:30:42;;;;;;;4.90;2.83;;;19.40;99.90;;;;;;5007652;27;2508969;-81
2023/10/14 08:36:56;;;;;;;2.40;1.90;;;20.20;99.90;;;;;;5058043;28;20463;-81
2023/10/14 08:49:43;;;;;;;1.77;1.27;;;20.60;99.90;;;;;;4977550;28;20481;-80
2023/10/14 08:55:37;;;;;;;3.37;1.57;;;20.90;99.90;;;;;;5043046;28;20556;-80
2023/10/14 08:58:35;;;;;;;;;;;;;;;;;;;;;
2023/10/14 09:01:43;;;;;;;2.10;1.70;;;21.50;99.90;;;;;;5058119;28;20449;-80
2023/10/14 09:04:45;;;;;;;1.27;1.20;;;21.60;99.90;;;;;;5059133;28;20453;-78
2023/10/14 09:07:32;;;;;;;2.17;1.30;;;21.10;99.90;;;;;;5058464;28;20465;-81
2023/10/14 09:10:49;;;;;;;2.00;1.43;;;21.20;99.90;;;;;;5058374;28;20529;-80
2023/10/14 09:13:59;;;;;;;;;;;;;;;;;;;;;
2023/10/14 09:26:46;;;;;;;1.13;1.00;;;18.10;99.90;;;;;;4984580;28;20461;-83
2023/10/14 09:42:15;;;;;;;1.67;1.57;;;17.60;99.90;;;;;;5026762;28;20438;-81
2023/10/14 09:48:19;;;;;;;;;;;;;;;;;;;;;
2023/10/14 10:05:19;;;;;;;;;;;;;;;;;;;;;
2023/10/14 10:12:21;;;;;;;;;;;;;;;;;;;;;
2023/10/14 10:15:22;;;;;;;1.00;1.00;;;17.60;99.90;;;;;;4952759;29;20450;-80
2023/10/14 10:31:16;;;;;;;2.20;1.23;;;17.40;99.90;;;;;;4982690;28;20437;-82
2023/10/14 10:37:57;;;;;;;0.90;0.90;;;17.30;99.90;;;;;;5042151;28;20446;-81
2023/10/14 10:40:49;;;;;;;1.20;1.20;;;17.40;99.90;;;;;;5043511;28;20502;-81
2023/10/14 10:43:32;;;;;;;2.17;1.00;;;17.50;99.90;;;;;;5035825;28;20442;-80
2023/10/14 10:46:30;;;;;;;;;;;;;;;;;;;;;
2023/10/14 10:56:21;;;;;;;1.40;1.40;;;17.50;99.90;;;;;;4935988;29;20467;-80
2023/10/14 11:03:19;;;;;;;;;;;;;;;;;;;;;
2023/10/14 11:09:49;;;;;;;1.60;1.53;;;17.30;99.90;;;;;;4775251;30;20494;-80
2023/10/14 11:23:16;;;;;;;1.27;1.23;;;17.10;99.90;;;;;;5028470;28;20466;-79
2023/10/14 11:29:34;;;;;;;1.30;1.30;;;16.70;99.90;;;;;;5031860;28;20523;-81
2023/10/14 11:32:16;;;;;;;1.57;1.47;;;16.60;99.90;;;;;;5033435;28;20464;-80
2023/10/14 11:34:58;;;;;;;1.40;1.03;;;16.60;99.90;;;;;;5043204;28;20470;-80
2023/10/14 11:37:36;;;;;;;1.30;1.20;;;16.60;99.90;;;;;;5041193;28;20478;-81
2023/10/14 11:40:49;;;;;;;1.20;1.20;;;16.60;99.90;;;;;;5039306;28;20512;-83
2023/10/14 11:59:19;;;;;;;2.10;1.27;;;16.20;99.90;;;;;;4972843;28;20914;-82
2023/10/14 12:02:27;;;;;;;1.10;1.10;;;16.00;99.90;;;;;;5015411;28;20450;-81
2023/10/14 12:09:25;;;;;;;1.00;0.90;;;15.50;99.90;;;;;;4883788;29;20468;-80
2023/10/14 12:12:51;;;;;;;3.30;0.90;;;15.50;99.90;;;;;;4980642;28;20460;-81
2023/10/14 12:46:40;;;;;;;1.23;1.23;;;15.40;99.90;;;;;;4749764;29;20569;-82
2023/10/14 13:02:55;;;;;;;1.37;1.37;;;15.20;99.90;;;;;;4794699;29;20828;-80
2023/10/14 13:30:02;;;;;;;;;;;;;;;;;;;;;
2023/10/14 13:33:03;;;;;;;1.30;1.20;;;14.90;99.90;;;;;;4887451;29;20471;-83
2023/10/14 13:36:12;;;;;;;1.60;1.30;;;14.90;99.90;;;;;;4923200;29;20506;-81
2023/10/14 13:42:38;;;;;;;1.10;1.00;;;15.00;99.90;;;;;;4990132;28;20884;-82
2023/10/14 13:45:34;;;;;;;0.90;0.90;;;14.90;99.90;;;;;;4951509;28;20458;-84
2023/10/14 13:48:21;;;;;;;1.10;1.07;;;14.70;99.90;;;;;;5044566;28;20451;-81
2023/10/14 13:50:58;;;;;;;1.20;1.20;;;14.60;99.90;;;;;;5040026;28;20541;-82
2023/10/14 13:53:36;;;;;;;1.20;1.20;;;14.60;99.90;;;;;;5048859;28;20454;-80
2023/10/14 13:56:19;;;;;;;1.23;1.17;;;14.50;99.90;;;;;;5049617;28;20471;-82
2023/10/14 13:59:21;;;;;;;;;;;;;;;;;;;;;
2023/10/14 14:02:03;;;;;;;1.13;0.93;;;14.60;99.90;;;;;;5043434;28;20430;-81
2023/10/14 14:07:55;;;;;;;1.57;1.37;;;14.50;99.90;;;;;;5001312;28;20485;-81
2023/10/14 14:10:26;;;;;;;1.40;1.30;;;14.40;99.90;;;;;;5037635;28;20573;-81
2023/10/14 14:23:24;;;;;;;1.50;1.40;;;14.20;99.90;;;;;;4977097;28;20473;-81
2023/10/14 14:26:17;;;;;;;1.93;1.50;;;14.20;99.90;;;;;;4976960;28;20476;-80
2023/10/14 14:29:27;;;;;;;1.60;1.50;;;14.10;99.90;;;;;;4979369;28;20453;-82
2023/10/14 14:32:09;;;;;;;1.60;1.50;;;14.00;99.90;;;;;;4960078;28;20492;-81
2023/10/14 14:34:37;;;;;;;1.80;1.70;;;14.00;99.90;;;;;;5013640;28;20543;-81
2023/10/14 14:37:21;;;;;;;1.70;1.60;;;14.00;99.90;;;;;;5045025;28;21549;-82
2023/10/14 14:40:26;;;;;;;3.60;2.10;;;14.00;99.90;;;;;;5044338;28;20928;-83
2023/10/14 14:43:11;;;;;;;3.50;1.70;;;14.00;99.90;;;;;;5040925;28;20455;-81
2023/10/14 14:45:49;;;;;;;3.23;2.93;;;14.10;99.90;;;;;;5040000;28;20986;-81
2023/10/14 14:49:12;;;;;;;6.43;5.73;;;14.00;99.90;;;;;;5030525;28;20430;-83
2023/10/14 15:05:23;;;;;;;4.93;2.60;;;13.80;99.90;;;;;;4950493;28;20913;-82
2023/10/14 15:08:24;;;;;;;4.17;2.43;;;13.70;99.90;;;;;;4923006;29;20880;-83
2023/10/14 15:11:26;;;;;;;;;;;;;;;;;;;;;
2023/10/14 15:14:06;;;;;;;3.17;2.40;;;13.70;99.90;;;;;;5047093;28;20456;-79
2023/10/14 15:27:50;;;;;;;4.60;3.00;;;13.70;99.90;;;;;;4959367;28;20481;-82
2023/10/14 15:30:44;;;;;;;8.70;2.60;;;13.60;99.90;;;;;;4987998;28;20482;-82
2023/10/14 15:53:38;;;;;;;6.43;3.00;;;13.60;99.90;;;;;;4737262;29;20456;-83
2023/10/14 15:56:39;;;;;;;6.83;3.10;;;13.70;99.90;;;;;;4922058;28;20470;-84
2023/10/14 15:59:44;;;;;;;5.23;3.43;;;13.50;99.90;;;;;;5034772;28;20490;-81
2023/10/14 16:02:20;;;;;;;6.37;2.93;;;13.40;99.90;;;;;;5035932;28;20470;-80
2023/10/14 16:05:01;;;;;;;6.30;2.83;;;13.30;99.90;;;;;;5039631;28;20442;-83
2023/10/14 16:10:42;;;;;;;4.53;2.93;;;13.00;99.90;;;;;;5004097;28;20475;-80
2023/10/14 16:13:40;;;;;;;;;;;;;;;;;;;;;
2023/10/14 16:54:11;;;;;;;;;;;;;;;;;;;;;
2023/10/14 17:00:20;;;;;;;4.53;2.87;;;12.40;99.90;;;;;;4855698;29;20466;-80
2023/10/14 17:03:06;;;;;;;10.33;3.23;;;12.40;99.90;;;;;;4857538;29;20582;-84
2023/10/14 17:05:39;;;;;;;4.83;3.70;;;12.30;99.90;;;;;;4941702;29;20975;-82
2023/10/14 17:08:31;;;;;;;5.10;3.20;;;12.30;99.90;;;;;;4942204;29;20459;-83
2023/10/14 17:11:14;;;;;;;3.73;3.10;;;12.30;99.90;;;;;;4924124;29;20483;-82
2023/10/14 17:13:52;;;;;;;5.97;3.57;;;12.30;99.90;;;;;;4944979;29;20458;-80
2023/10/14 17:16:26;;;;;;;11.43;3.17;;;12.30;99.90;;;;;;4944304;29;20852;-81
2023/10/14 17:19:07;;;;;;;8.30;3.03;;;12.40;99.90;;;;;;4943973;29;20506;-82
2023/10/14 17:21:48;;;;;;;3.37;3.07;;;12.30;99.90;;;;;;4944006;29;20457;-80
2023/10/14 17:24:41;;;;;;;;;;;;;;;;;;;;;
2023/10/14 17:27:10;;;;;;;6.37;4.10;;;12.30;99.90;;;;;;4941040;29;20475;-82
2023/10/14 17:29:38;;;;;;;3.63;2.57;;;12.30;99.90;;;;;;4942568;29;20487;-81
2023/10/14 17:32:14;;;;;;;6.43;2.73;;;12.20;99.90;;;;;;4929149;29;20848;-82
2023/10/14 17:34:53;;;;;;;4.33;3.10;;;12.20;99.90;;;;;;4940902;29;21027;-80
2023/10/14 17:37:38;;;;;;;7.77;3.17;;;12.20;99.90;;;;;;4946199;29;20527;-81
2023/10/14 17:40:27;;;;;;;5.47;2.93;;;12.20;99.90;;;;;;4947626;29;20447;-80
2023/10/14 17:43:32;;;;;;;6.10;2.70;;;11.90;99.90;;;;;;4943550;29;20451;-79
2023/10/14 17:46:01;;;;;;;2.33;2.13;;;12.10;99.90;;;;;;4946184;29;20474;-82
2023/10/14 17:48:34;;;;;;;4.50;2.53;;;12.10;99.90;;;;;;4945407;29;20542;-80
2023/10/14 17:51:11;;;;;;;6.17;3.13;;;12.10;99.90;;;;;;4946144;29;20543;-78
2023/10/14 17:53:44;;;;;;;4.23;3.07;;;12.00;99.90;;;;;;4948530;29;20493;-80
2023/10/14 17:56:12;;;;;;;7.47;3.00;;;12.00;99.90;;;;;;4946499;29;20477;-80
2023/10/14 17:58:43;;;;;;;6.90;3.07;;;11.90;99.90;;;;;;4948968;29;20439;-78
2023/10/14 18:01:12;;;;;;;3.73;3.33;;;11.90;99.90;;;;;;4953971;29;20471;-80
2023/10/14 18:03:55;;;;;;;6.97;2.57;;;11.90;99.90;;;;;;4951110;29;20478;-81
2023/10/14 18:07:02;;;;;;;4.47;2.93;;;11.90;99.90;;;;;;4943514;29;20471;-80
2023/10/14 18:09:30;;;;;;;5.50;2.70;;;12.00;99.90;;;;;;4931482;29;20467;-83
2023/10/14 18:14:45;;;;;;;8.80;3.10;;;12.20;99.90;;;;;;4948259;29;20457;-82
2023/10/14 18:17:21;;;;;;;4.77;2.77;;;11.70;99.90;;;;;;4952175;29;20467;-82
2023/10/14 18:23:32;;;;;;;5.53;3.10;;;11.60;99.90;;;;;;4931295;29;20482;-84
2023/10/14 18:26:08;;;;;;;4.20;3.07;;;11.90;99.90;;;;;;4946114;29;20481;-80
2023/10/14 18:28:39;;;;;;;4.97;3.03;;;11.80;99.90;;;;;;4950341;29;20459;-80
2023/10/14 18:31:10;;;;;;;6.33;3.20;;;11.80;99.90;;;;;;4948316;29;20510;-82
2023/10/14 18:33:40;;;;;;;6.20;3.03;;;11.80;99.90;;;;;;4944920;29;20487;-82
2023/10/14 18:36:09;;;;;;;3.60;2.53;;;11.80;99.90;;;;;;4944100;29;20980;-80
2023/10/14 18:38:39;;;;;;;20.53;16.20;;;11.50;99.90;;;;;;4946501;29;20455;-81
2023/10/14 18:41:17;;;;;;;4.97;2.83;;;11.80;99.90;;;;;;4943667;29;20528;-80
2023/10/14 18:43:54;;;;;;;6.77;3.43;;;11.70;99.90;;;;;;4947779;29;20431;-80
2023/10/14 18:46:24;;;;;;;3.00;2.77;;;11.80;99.90;;;;;;4945427;29;20459;-79
2023/10/14 18:48:55;;;;;;;3.40;2.67;;;11.70;99.90;;;;;;4946019;29;20493;-80
2023/10/14 18:51:27;;;;;;;3.53;2.60;;;11.70;99.90;;;;;;4943354;29;20467;-82
2023/10/14 18:53:57;;;;;;;4.83;2.60;;;11.70;99.90;;;;;;4960949;29;20945;-81
2023/10/14 18:56:30;;;;;;;2.37;2.10;;;11.70;99.90;;;;;;4951867;29;20467;-80
2023/10/14 18:58:57;;;;;;;5.07;2.87;;;11.70;99.90;;;;;;4960330;29;20443;-83
2023/10/14 19:01:30;;;;;;;5.80;2.63;;;11.70;99.90;;;;;;4959147;29;20426;-81
2023/10/14 19:04:00;;;;;;;4.83;2.90;;;11.60;99.90;;;;;;4957719;29;20541;-82
2023/10/14 19:06:38;;;;;;;4.13;2.40;;;11.60;99.90;;;;;;4956300;28;20545;-81
2023/10/14 19:09:11;;;;;;;3.00;2.10;;;11.60;99.90;;;;;;4950863;29;20443;-81
2023/10/14 19:11:42;;;;;;;3.00;2.30;;;11.80;99.90;;;;;;4947962;29;20487;-80
2023/10/14 19:14:13;;;;;;;5.47;2.43;;;11.60;99.90;;;;;;4947283;29;20443;-79
2023/10/14 19:16:52;;;;;;;2.30;2.00;;;11.60;99.90;;;;;;4945915;29;20475;-81
2023/10/14 19:19:24;;;;;;;4.73;3.20;;;11.60;99.90;;;;;;4942546;29;20483;-82
2023/10/14 19:21:54;;;;;;;3.30;2.40;;;11.60;99.90;;;;;;4946526;29;20573;-80
2023/10/14 19:24:25;;;;;;;6.07;2.50;;;11.60;99.90;;;;;;4942929;29;20459;-83
2023/10/14 19:27:03;;;;;;;7.73;3.50;;;11.50;99.90;;;;;;4957417;28;20478;-81
2023/10/14 19:29:34;;;;;;;2.77;2.57;;;11.50;99.90;;;;;;4935203;29;20865;-81
2023/10/14 19:32:07;;;;;;;4.73;2.40;;;11.50;99.90;;;;;;4942359;29;20549;-81
2023/10/14 19:34:35;;;;;;;3.83;2.10;;;11.50;99.90;;;;;;4942797;29;20473;-79
2023/10/14 19:37:10;;;;;;;4.27;2.57;;;11.50;99.90;;;;;;4946588;29;20499;-79
2023/10/14 19:39:39;;;;;;;2.70;2.50;;;11.50;99.90;;;;;;4948025;29;20463;-82
2023/10/14 19:42:14;;;;;;;3.30;2.30;;;11.50;99.90;;;;;;4949349;29;20538;-81
2023/10/14 19:44:52;;;;;;;2.87;2.57;;;11.50;99.90;;;;;;4948831;29;20447;-84
2023/10/14 19:47:35;;;;;;;2.80;2.50;;;11.40;99.90;;;;;;4945684;29;20475;-78
2023/10/14 19:51:02;;;;;;;2.73;2.40;;;11.40;99.90;;;;;;4945851;29;20475;-80
2023/10/14 19:53:52;;;;;;;6.10;2.83;;;11.60;99.90;;;;;;4914657;29;20451;-80
2023/10/14 19:59:29;;;;;;;3.53;2.97;;;11.40;99.90;;;;;;4943966;29;20489;-82
2023/10/14 20:14:11;;;;;;;6.47;3.57;;;11.40;99.90;;;;;;4858703;29;20465;-81
2023/10/14 20:21:15;;;;;;;4.10;2.53;;;11.10;99.90;;;;;;4927274;29;20447;-84
2023/10/14 20:27:02;;;;;;;2.90;2.57;;;11.30;99.90;;;;;;4933036;29;20452;-81
2023/10/14 20:30:00;;;;;;;4.87;2.40;;;11.30;99.90;;;;;;4932641;29;20459;-81
2023/10/14 20:35:52;;;;;;;5.23;2.60;;;11.20;99.90;;;;;;4937008;29;20866;-82
2023/10/14 20:41:59;;;;;;;2.70;2.40;;;11.10;99.90;;;;;;4917558;29;20439;-81
2023/10/14 20:45:12;;;;;;;3.60;2.00;;;10.80;99.90;;;;;;4941488;29;20451;-82
2023/10/14 20:47:48;;;;;;;3.50;2.17;;;11.00;99.90;;;;;;4944988;29;20509;-82
2023/10/14 20:50:41;;;;;;;7.47;3.50;;;11.00;99.90;;;;;;4931710;29;20448;-83
2023/10/14 20:53:15;;;;;;;5.17;2.97;;;11.00;99.90;;;;;;4902690;29;20490;-80
2023/10/14 21:16:44;;;;;;;3.73;2.30;;;10.40;99.90;;;;;;4884752;29;20477;-80
2023/10/14 21:29:31;;;;;;;3.10;2.20;;;10.70;99.90;;;;;;4845235;29;20458;-80
2023/10/14 21:43:41;;;;;;;2.80;2.40;;;10.40;99.90;;;;;;4691190;30;21011;-78
2023/10/14 21:46:22;;;;;;;4.37;2.70;;;10.40;99.90;;;;;;4740685;29;20512;-78
2023/10/14 21:49:13;;;;;;;5.37;2.33;;;10.40;99.90;;;;;;4894540;29;20535;-78
2023/10/14 21:54:46;;;;;;;5.00;2.57;;;10.10;99.90;;;;;;4928711;29;20454;-79
2023/10/14 21:57:18;;;;;;;3.53;2.30;;;10.30;99.90;;;;;;4941384;29;20470;-79
2023/10/14 22:00:00;;;;;;;6.17;2.60;;;10.30;99.90;;;;;;4943873;29;20475;-77
2023/10/14 22:03:06;;;;;;;6.00;2.53;;;10.30;99.90;;;;;;4945297;29;20466;-79
2023/10/14 22:05:38;;;;;;;3.57;2.90;;;10.50;99.90;;;;;;4944559;29;20465;-79
2023/10/14 22:08:28;;;;;;;5.33;2.37;;;10.30;99.90;;;;;;4943631;29;20510;-79
2023/10/14 22:11:03;;;;;;;2.73;2.43;;;10.20;99.90;;;;;;4944640;29;20459;-78
2023/10/14 22:14:19;;;;;;;5.93;2.57;;;10.20;99.90;;;;;;4949020;29;21031;-79
2023/10/14 22:17:04;;;;;;;3.93;2.70;;;9.90;99.90;;;;;;4956121;29;20470;-79
2023/10/14 22:19:47;;;;;;;3.90;2.80;;;10.20;99.90;;;;;;4953966;29;20479;-79
2023/10/14 22:22:33;;;;;;;2.20;2.00;;;10.10;99.90;;;;;;4952742;29;20482;-79
2023/10/14 22:36:15;;;;;;;8.30;2.90;;;10.00;99.90;;;;;;4847991;29;20490;-78
2023/10/14 22:39:00;;;;;;;7.83;2.83;;;9.90;99.90;;;;;;4904920;29;20831;-81
2023/10/14 22:41:50;;;;;;;;;;;;;;;;;;;;;
2023/10/14 22:45:10;;;;;;;;;;;;;;;;;;;;;
2023/10/14 22:50:37;;;;;;;3.57;2.30;;;9.50;99.90;;;;;;4932109;29;20483;-78
2023/10/14 23:00:12;;;;;;;3.40;2.20;;;9.80;99.90;;;;;;4869593;29;20436;-79
2023/10/14 23:03:41;;;;;;;3.63;2.27;;;9.80;99.90;;;;;;4885932;29;20458;-77
2023/10/14 23:06:42;;;;;;;5.73;2.20;;;9.80;99.90;;;;;;4950503;29;20526;-78
2023/10/14 23:09:49;;;;;;;4.97;2.70;;;9.70;99.90;;;;;;4933066;29;20876;-81
2023/10/14 23:12:35;;;;;;;4.80;2.37;;;9.70;99.90;;;;;;4946650;29;20566;-81
2023/10/14 23:15:14;;;;;;;3.10;2.27;;;9.70;99.90;;;;;;4946636;29;20469;-80
2023/10/14 23:18:10;;;;;;;4.17;2.60;;;9.70;99.90;;;;;;4947218;29;20459;-81
2023/10/14 23:21:17;;;;;;;5.93;2.47;;;9.70;99.90;;;;;;4947852;29;20455;-82
2023/10/14 23:23:58;;;;;;;5.53;2.30;;;9.70;99.90;;;;;;4946652;29;20447;-80
2023/10/14 23:26:51;;;;;;;4.93;2.30;;;9.30;99.90;;;;;;4946270;29;20475;-79
2023/10/14 23:29:51;;;;;;;3.93;2.37;;;9.60;99.90;;;;;;4946067;29;20522;-80
2023/10/14 23:32:39;;;;;;;2.93;2.37;;;9.60;99.90;;;;;;4926688;29;20519;-79
2023/10/14 23:35:26;;;;;;;2.00;1.90;;;9.50;99.90;;;;;;4944999;29;20458;-80
2023/10/14 23:43:44;;;;;;;2.40;2.20;;;9.50;99.90;;;;;;4944538;29;20433;-79
2023/10/14 23:46:25;;;;;;;2.13;1.93;;;9.50;99.90;;;;;;4945214;29;20526;-79
2023/10/14 23:49:05;;;;;;;3.40;1.77;;;9.50;99.90;;;;;;4945680;29;20486;-85
2023/10/14 23:51:47;;;;;;;8.80;1.97;;;9.50;99.90;;;;;;4945016;29;20454;-78
2023/10/14 23:54:35;;;;;;;3.93;2.40;;;9.40;99.90;;;;;;4944790;29;20482;-79
2023/10/14 23:57:13;;;;;;;3.63;1.63;;;9.50;99.90;;;;;;4942803;29;20479;-78
2023/10/14 23:59:49;;;;;;;4.30;2.30;;;9.40;99.90;;;;;;4939788;29;20965;-80
